CheckWX is a tool to help pilots better visualize weather data.  It is not intended as a substitute for an official pre-flight weather briefing.

19:15:45 UTC

EHFS METAR
Vlissingen
Vlissingen, The Netherlands
Current

51 mins ago

EHFS 261825Z AUTO 25019KT 9999 OVC020 16/12 Q1011 W///H///
Observed
May-26 @ 18:25 UTC
Wind
  • 250° at 19 KTS
Visibility
10,000+ meters
Flight Rules
MVFR
Cloud Levels
  • Overcast at 2,000' AGL
Temperature
16°C / 61°F
Dewpoint
12°C / 54°F
Humidity
77%
Altimeter
29.85" Hg
Pressure
1010.92 hPa
Previous

1 hour ago

EHFS 261755Z AUTO 25022KT 9999 BKN026/// 17/12 Q1011 W///H///
Observed
May-26 @ 17:55 UTC
Wind
  • 250° at 22 KTS
Visibility
10,000+ meters
Flight Rules
MVFR
Cloud Levels
  • Broken at 2,600' AGL
Temperature
17°C / 63°F
Dewpoint
12°C / 54°F
Humidity
73%
Altimeter
29.85" Hg
Pressure
1010.92 hPa
Previous

2 hours ago

EHFS 261725Z AUTO 27019KT 9999 FEW031/// 16/12 Q1011 W///H///
Observed
May-26 @ 17:25 UTC
Wind
  • 270° at 19 KTS
Visibility
10,000+ meters
Flight Rules
VFR
Cloud Levels
  • Few at 3,100' AGL
Temperature
16°C / 61°F
Dewpoint
12°C / 54°F
Humidity
77%
Altimeter
29.85" Hg
Pressure
1010.92 hPa